Time;durP1;ratioP1;P1;durP2;ratioP2;P2;SDS_P1;SDS_P2;PMS_P1;PMS_P2;Temp;Humidity;BMP_temperature;BMP_pressure;BME280_temperature;BME280_humidity;BME280_pressure;Samples;Min_cycle;Max_cycle;Signal;HPM_P1;HPM_P2
2023/03/17 00:01:11;;;;;;;0.52;0.52;;;;;;;9.75;55.20;100408.47;5134975;28;20049;-81
2023/03/17 00:03:44;;;;;;;0.40;0.40;;;;;;;9.80;54.89;100403.94;5117337;28;20165;-81
2023/03/17 00:06:17;;;;;;;0.50;0.50;;;;;;;9.84;54.92;100407.34;5143208;28;20037;-81
2023/03/17 00:08:48;;;;;;;0.40;0.40;;;;;;;9.83;54.59;100411.72;5144404;28;20027;-81
2023/03/17 00:11:19;;;;;;;0.77;0.77;;;;;;;9.80;54.49;100401.31;5146146;28;20129;-82
2023/03/17 00:13:50;;;;;;;0.40;0.40;;;;;;;9.60;54.96;100394.88;5152494;28;20031;-81
2023/03/17 00:16:24;;;;;;;2.03;1.35;;;;;;;9.77;54.94;100406.66;5150364;28;20056;-82
2023/03/17 00:18:56;;;;;;;0.68;0.68;;;;;;;9.82;55.04;100411.75;5148845;28;20031;-81
2023/03/17 00:21:29;;;;;;;0.30;0.30;;;;;;;9.88;54.83;100408.94;5119032;28;20045;-81
2023/03/17 00:24:00;;;;;;;0.43;0.43;;;;;;;9.82;54.44;100399.53;5136957;28;20026;-81
2023/03/17 00:26:32;;;;;;;0.20;0.20;;;;;;;9.71;54.56;100407.66;5149931;28;20042;-81
2023/03/17 00:29:04;;;;;;;0.40;0.40;;;;;;;9.72;54.67;100403.31;5135493;28;20034;-80
2023/03/17 00:31:36;;;;;;;0.50;0.50;;;;;;;9.80;54.99;100405.69;5149896;28;20038;-81
2023/03/17 00:34:14;;;;;;;0.28;0.28;;;;;;;9.81;54.46;100412.66;5150296;28;20031;-81
2023/03/17 00:36:47;;;;;;;1.23;0.45;;;;;;;9.78;55.08;100416.22;5145576;28;20558;-81
2023/03/17 00:39:18;;;;;;;0.70;0.70;;;;;;;9.66;55.06;100414.81;5143878;28;20154;-80
2023/03/17 00:41:48;;;;;;;0.20;0.20;;;;;;;9.81;55.16;100410.91;5131827;28;20038;-81
2023/03/17 00:44:19;;;;;;;0.93;0.93;;;;;;;9.75;54.19;100404.06;5122205;28;20034;-81
2023/03/17 00:46:50;;;;;;;0.47;0.47;;;;;;;9.84;54.62;100397.69;5112357;28;20105;-80
2023/03/17 00:49:23;;;;;;;0.80;0.80;;;;;;;9.84;55.29;100396.84;5132224;28;20674;-81
2023/03/17 00:51:54;;;;;;;0.60;0.60;;;;;;;9.82;54.71;100398.66;5129360;28;20046;-81
2023/03/17 00:54:24;;;;;;;0.38;0.38;;;;;;;9.72;54.77;100398.91;5130972;28;20026;-80
2023/03/17 00:56:55;;;;;;;0.30;0.30;;;;;;;9.75;54.99;100401.47;5135299;28;20026;-81
2023/03/17 00:59:28;;;;;;;0.38;0.38;;;;;;;9.77;55.13;100393.53;5133359;28;20406;-80
2023/03/17 01:01:59;;;;;;;0.30;0.30;;;;;;;9.61;54.86;100386.13;5147156;28;20374;-80
2023/03/17 01:04:29;;;;;;;0.35;0.35;;;;;;;9.67;55.31;100366.75;5125611;28;20304;-81
2023/03/17 01:07:00;;;;;;;0.20;0.20;;;;;;;9.62;54.50;100366.06;5153026;28;20027;-81
2023/03/17 01:09:32;;;;;;;1.33;1.23;;;;;;;9.64;54.47;100369.47;5158211;28;20031;-80
2023/03/17 01:12:03;;;;;;;0.55;0.55;;;;;;;9.70;55.10;100355.34;5149300;28;20547;-80
2023/03/17 01:14:34;;;;;;;0.43;0.43;;;;;;;9.62;55.06;100342.47;5128682;28;20117;-80
2023/03/17 01:17:12;;;;;;;0.30;0.30;;;;;;;9.50;54.58;100337.56;5143963;28;20060;-80
2023/03/17 01:19:45;;;;;;;0.30;0.30;;;;;;;9.50;55.44;100325.34;5126325;28;20103;-80
2023/03/17 01:22:15;;;;;;;0.30;0.30;;;;;;;9.34;55.09;100329.31;5135820;28;20177;-80
2023/03/17 01:24:47;;;;;;;0.60;0.60;;;;;;;9.41;55.40;100316.00;5165367;28;20090;-81
2023/03/17 01:27:18;;;;;;;0.38;0.38;;;;;;;9.37;55.12;100305.66;5133693;28;20037;-80
2023/03/17 01:29:52;;;;;;;0.20;0.20;;;;;;;9.38;55.15;100302.97;5146188;28;20041;-80
2023/03/17 01:32:23;;;;;;;0.20;0.20;;;;;;;9.34;55.17;100297.91;5138810;28;20018;-80
2023/03/17 01:34:53;;;;;;;0.70;0.70;;;;;;;9.12;54.97;100298.47;5145185;28;20046;-80
2023/03/17 01:37:24;;;;;;;0.55;0.55;;;;;;;9.23;55.37;100300.78;5128803;28;20031;-80
2023/03/17 01:39:55;;;;;;;0.30;0.30;;;;;;;9.30;55.17;100307.56;5145293;28;20398;-79
2023/03/17 01:42:27;;;;;;;0.30;0.30;;;;;;;9.24;55.30;100319.09;5131043;28;20175;-81
2023/03/17 01:45:07;;;;;;;0.30;0.30;;;;;;;9.33;55.10;100328.44;5141275;28;20430;-81
2023/03/17 01:47:38;;;;;;;0.20;0.20;;;;;;;9.31;55.41;100309.28;5127990;28;20026;-82
2023/03/17 01:50:09;;;;;;;0.30;0.30;;;;;;;9.27;55.46;100307.69;5129825;28;20275;-81
2023/03/17 01:52:39;;;;;;;0.20;0.20;;;;;;;9.18;55.50;100297.47;5145650;28;20026;-82
2023/03/17 01:55:16;;;;;;;1.02;1.02;;;;;;;9.14;55.73;100292.31;5151337;28;20052;-82
2023/03/17 01:57:52;;;;;;;0.30;0.30;;;;;;;9.33;55.42;100283.94;5143150;28;20431;-81
2023/03/17 02:00:25;;;;;;;0.50;0.50;;;;;;;9.42;55.42;100282.81;5142153;28;20042;-83
2023/03/17 02:02:56;;;;;;;0.30;0.30;;;;;;;9.39;55.26;100290.75;5155667;28;20033;-82
2023/03/17 02:05:29;;;;;;;0.55;0.55;;;;;;;9.34;55.46;100297.91;5135259;28;20030;-82
2023/03/17 02:08:00;;;;;;;0.70;0.70;;;;;;;9.28;55.48;100293.69;5133811;28;20047;-82
2023/03/17 02:10:30;;;;;;;0.73;0.73;;;;;;;9.37;55.63;100297.78;5130596;28;20072;-82
2023/03/17 02:13:04;;;;;;;0.95;0.95;;;;;;;9.46;55.66;100297.53;5147375;28;20029;-82
2023/03/17 02:15:45;;;;;;;0.30;0.30;;;;;;;9.38;55.51;100304.75;5122568;28;20067;-82
2023/03/17 02:18:18;;;;;;;1.35;0.82;;;;;;;9.39;55.93;100307.31;5125180;28;20035;-81
2023/03/17 02:20:48;;;;;;;0.30;0.30;;;;;;;9.32;56.05;100310.16;5132271;28;20047;-81
2023/03/17 02:23:22;;;;;;;0.50;0.50;;;;;;;9.41;55.87;100310.75;5142461;28;20031;-80
2023/03/17 02:25:53;;;;;;;0.28;0.28;;;;;;;9.34;55.76;100314.44;5124357;28;20035;-81
2023/03/17 02:28:28;;;;;;;5.45;0.47;;;;;;;9.35;55.60;100305.69;5125502;28;20508;-81
2023/03/17 02:30:59;;;;;;;0.30;0.30;;;;;;;9.35;55.84;100300.47;5144216;28;20039;-81
2023/03/17 02:33:29;;;;;;;0.70;0.70;;;;;;;9.26;55.83;100301.56;5143614;28;20089;-81
2023/03/17 02:36:00;;;;;;;0.30;0.30;;;;;;;9.30;55.81;100291.84;5127987;28;20042;-82
2023/03/17 02:38:30;;;;;;;0.57;0.57;;;;;;;9.37;55.99;100292.56;5123282;28;20428;-82
2023/03/17 02:41:01;;;;;;;0.22;0.22;;;;;;;9.38;55.95;100279.41;5136787;28;20035;-81
2023/03/17 02:43:32;;;;;;;0.40;0.40;;;;;;;9.28;55.72;100277.97;5146481;28;20086;-82
2023/03/17 02:46:04;;;;;;;0.47;0.47;;;;;;;9.26;56.23;100285.84;5123030;28;20035;-81
2023/03/17 02:48:36;;;;;;;0.38;0.38;;;;;;;9.32;56.17;100269.13;5114158;28;20146;-81
2023/03/17 02:51:07;;;;;;;0.43;0.43;;;;;;;9.35;55.79;100262.94;5140404;28;20054;-82
2023/03/17 02:53:37;;;;;;;0.30;0.30;;;;;;;9.29;55.87;100264.00;5121742;28;20593;-81
2023/03/17 02:56:09;;;;;;;0.40;0.40;;;;;;;9.24;55.88;100276.34;5136635;28;20046;-82
2023/03/17 02:58:39;;;;;;;0.25;0.25;;;;;;;9.10;56.30;100280.22;5137481;28;20022;-82
2023/03/17 03:01:10;;;;;;;0.35;0.35;;;;;;;9.08;56.25;100276.78;5125648;28;20035;-81
2023/03/17 03:03:41;;;;;;;0.52;0.50;;;;;;;9.18;56.03;100272.13;5137135;28;20042;-81
2023/03/17 03:06:12;;;;;;;0.50;0.50;;;;;;;9.12;56.65;100277.53;5152462;28;20038;-81
2023/03/17 03:08:42;;;;;;;0.40;0.40;;;;;;;9.09;56.50;100275.03;5140854;28;20038;-81
2023/03/17 03:11:13;;;;;;;0.30;0.30;;;;;;;8.91;56.77;100273.75;5127759;28;20121;-80
2023/03/17 03:13:43;;;;;;;0.30;0.30;;;;;;;8.94;56.73;100286.78;5125646;28;20025;-81
2023/03/17 03:16:15;;;;;;;0.35;0.35;;;;;;;9.00;56.56;100281.38;5127127;28;20074;-82
2023/03/17 03:18:46;;;;;;;0.38;0.38;;;;;;;9.06;56.75;100275.09;5138877;28;20388;-81
2023/03/17 03:21:16;;;;;;;1.77;1.65;;;;;;;9.09;56.36;100268.03;5138576;28;20042;-81
2023/03/17 03:23:47;;;;;;;0.40;0.40;;;;;;;8.90;56.62;100266.81;5130483;28;20541;-81
2023/03/17 03:26:17;;;;;;;0.30;0.30;;;;;;;9.01;56.46;100271.78;5152190;28;20076;-81
2023/03/17 03:28:48;;;;;;;0.85;0.85;;;;;;;9.01;56.25;100266.53;5128979;28;20132;-80
2023/03/17 03:31:19;;;;;;;0.45;0.45;;;;;;;9.09;56.59;100257.56;5144826;28;20046;-81
2023/03/17 03:33:49;;;;;;;0.43;0.43;;;;;;;9.09;56.40;100256.72;5144134;28;20541;-81
2023/03/17 03:36:21;;;;;;;0.38;0.38;;;;;;;8.99;56.35;100261.31;5148192;28;20051;-83
2023/03/17 03:38:51;;;;;;;0.30;0.30;;;;;;;8.98;56.64;100243.91;5149870;28;20057;-82
2023/03/17 03:41:22;;;;;;;0.28;0.28;;;;;;;8.97;57.05;100250.03;5107728;28;20035;-82
2023/03/17 03:43:52;;;;;;;1.55;0.60;;;;;;;9.04;56.20;100264.69;5162542;28;20041;-82
2023/03/17 03:46:23;;;;;;;0.30;0.30;;;;;;;8.95;56.15;100263.19;5128639;28;20054;-82
2023/03/17 03:48:54;;;;;;;1.30;1.20;;;;;;;8.95;56.73;100264.94;5125620;28;20244;-82
2023/03/17 03:51:24;;;;;;;6.65;1.45;;;;;;;9.05;56.34;100273.38;5126914;28;20041;-82
2023/03/17 03:53:55;;;;;;;0.73;0.73;;;;;;;9.01;56.43;100269.16;5147563;28;20019;-83
2023/03/17 03:56:25;;;;;;;0.73;0.73;;;;;;;8.87;56.67;100282.59;5131042;28;20058;-81
2023/03/17 03:58:56;;;;;;;0.40;0.40;;;;;;;8.94;56.64;100292.84;5145103;28;20027;-82
2023/03/17 04:01:27;;;;;;;0.50;0.50;;;;;;;8.96;56.55;100295.44;5127536;28;20118;-83
2023/03/17 04:03:57;;;;;;;0.30;0.30;;;;;;;8.91;56.83;100284.22;5133049;28;20018;-81
2023/03/17 04:06:28;;;;;;;0.40;0.40;;;;;;;8.90;56.96;100275.53;5128393;28;20405;-81
2023/03/17 04:08:58;;;;;;;0.25;0.25;;;;;;;8.96;56.78;100274.50;5145789;28;20174;-82
2023/03/17 04:11:28;;;;;;;0.30;0.30;;;;;;;8.86;56.96;100286.13;5153176;28;20046;-83
2023/03/17 04:13:59;;;;;;;0.47;0.47;;;;;;;8.94;56.54;100281.53;5145183;28;20281;-83
2023/03/17 04:16:29;;;;;;;0.57;0.40;;;;;;;8.89;56.82;100279.03;5138441;28;20038;-82
2023/03/17 04:19:00;;;;;;;0.50;0.50;;;;;;;8.88;57.08;100284.34;5131108;28;20386;-82
2023/03/17 04:21:31;;;;;;;0.30;0.30;;;;;;;8.88;57.16;100297.41;5110953;28;20045;-82
2023/03/17 04:24:04;;;;;;;0.20;0.20;;;;;;;8.84;56.98;100287.91;5142734;28;20043;-83
2023/03/17 04:26:34;;;;;;;0.60;0.60;;;;;;;8.87;56.92;100283.47;5144289;28;20049;-82
2023/03/17 04:29:07;;;;;;;0.75;0.75;;;;;;;8.71;57.09;100288.25;5143581;28;20287;-84
2023/03/17 04:31:38;;;;;;;0.38;0.38;;;;;;;8.79;57.09;100277.56;5161318;28;20030;-84
2023/03/17 04:34:15;;;;;;;0.30;0.30;;;;;;;8.85;56.81;100269.56;5164216;28;20023;-80
2023/03/17 04:36:46;;;;;;;0.30;0.30;;;;;;;8.80;56.83;100272.28;5147653;28;20580;-80
2023/03/17 04:39:17;;;;;;;0.30;0.30;;;;;;;8.83;57.19;100263.53;5140259;28;20041;-82
2023/03/17 04:41:47;;;;;;;0.40;0.40;;;;;;;8.86;57.15;100278.28;5159055;28;20034;-80
2023/03/17 04:44:18;;;;;;;0.30;0.30;;;;;;;8.91;57.14;100274.63;5126170;28;20026;-83
2023/03/17 04:46:48;;;;;;;0.93;0.93;;;;;;;8.64;57.17;100271.84;5128291;28;20132;-81
2023/03/17 04:49:19;;;;;;;0.50;0.50;;;;;;;8.79;56.78;100269.72;5131475;28;20042;-82
2023/03/17 04:51:49;;;;;;;0.40;0.40;;;;;;;8.43;57.90;100262.78;5124105;28;20046;-80
2023/03/17 04:54:20;;;;;;;0.50;0.50;;;;;;;8.72;56.97;100268.19;5153222;28;20027;-81
2023/03/17 04:56:51;;;;;;;2.50;1.27;;;;;;;8.78;56.59;100271.50;5128266;28;20046;-80
2023/03/17 04:59:21;;;;;;;0.30;0.30;;;;;;;8.84;56.87;100261.75;5146612;28;20519;-80
2023/03/17 05:01:52;;;;;;;0.32;0.32;;;;;;;8.67;56.63;100265.69;5124706;28;20035;-80
2023/03/17 05:04:22;;;;;;;0.68;0.68;;;;;;;8.52;57.11;100266.09;5132965;28;20757;-80
2023/03/17 05:06:52;;;;;;;0.82;0.82;;;;;;;8.68;57.19;100269.19;5153683;28;20034;-80
2023/03/17 05:09:24;;;;;;;0.30;0.30;;;;;;;8.64;57.17;100266.63;5150135;28;20026;-80
2023/03/17 05:11:55;;;;;;;0.30;0.30;;;;;;;8.57;57.46;100274.66;5130244;28;20671;-80
2023/03/17 05:14:25;;;;;;;0.30;0.30;;;;;;;8.67;57.53;100284.00;5131816;28;20089;-80
2023/03/17 05:16:55;;;;;;;0.60;0.60;;;;;;;8.49;57.56;100282.72;5158962;28;20035;-81
2023/03/17 05:19:26;;;;;;;1.05;1.05;;;;;;;8.65;57.34;100283.16;5138730;28;20089;-80
2023/03/17 05:21:56;;;;;;;0.30;0.30;;;;;;;8.70;57.30;100280.44;5136606;28;20054;-82
2023/03/17 05:24:27;;;;;;;0.30;0.30;;;;;;;8.43;57.65;100272.38;5126011;28;20429;-80
2023/03/17 05:26:57;;;;;;;4.82;1.50;;;;;;;8.45;57.42;100276.69;5159141;28;20629;-81
2023/03/17 05:29:28;;;;;;;0.30;0.30;;;;;;;8.49;57.31;100286.19;5143533;28;20018;-82
2023/03/17 05:31:58;;;;;;;0.40;0.40;;;;;;;8.43;57.65;100273.25;5137265;28;20023;-80
2023/03/17 05:34:29;;;;;;;0.20;0.20;;;;;;;8.55;57.44;100273.88;5147389;28;20056;-81
2023/03/17 05:37:00;;;;;;;0.32;0.32;;;;;;;8.64;57.64;100273.59;5133630;28;20034;-80
2023/03/17 05:39:31;;;;;;;0.30;0.30;;;;;;;8.68;57.27;100267.41;5147476;28;20042;-80
2023/03/17 05:42:02;;;;;;;0.55;0.55;;;;;;;8.63;57.54;100267.53;5146165;28;20154;-80
2023/03/17 05:44:33;;;;;;;0.32;0.32;;;;;;;8.76;57.14;100267.22;5148110;28;20079;-80
2023/03/17 05:47:03;;;;;;;0.40;0.40;;;;;;;8.74;57.26;100276.84;5120694;28;20532;-80
2023/03/17 05:49:34;;;;;;;0.20;0.20;;;;;;;8.70;57.02;100268.22;5137543;28;20023;-80
2023/03/17 05:52:05;;;;;;;0.50;0.50;;;;;;;8.70;57.40;100270.84;5123407;28;20035;-81
2023/03/17 05:54:35;;;;;;;0.73;0.73;;;;;;;8.61;57.59;100268.47;5133251;28;20072;-82
2023/03/17 05:57:06;;;;;;;0.20;0.20;;;;;;;8.70;57.46;100270.84;5158166;28;20036;-80
2023/03/17 05:59:36;;;;;;;0.40;0.40;;;;;;;8.65;57.70;100268.34;5157211;28;20297;-81
2023/03/17 06:02:08;;;;;;;0.70;0.32;;;;;;;8.58;57.32;100265.91;5143553;28;20370;-81
2023/03/17 06:04:39;;;;;;;0.32;0.32;;;;;;;8.49;57.52;100270.50;5134030;28;20054;-80
2023/03/17 06:07:10;;;;;;;0.40;0.40;;;;;;;8.43;57.84;100267.16;5132126;28;20082;-81
2023/03/17 06:09:41;;;;;;;0.30;0.30;;;;;;;8.58;57.52;100261.56;5150988;28;20035;-82
2023/03/17 06:12:11;;;;;;;0.60;0.60;;;;;;;8.63;57.27;100259.69;5147926;28;20766;-82
2023/03/17 06:14:42;;;;;;;0.50;0.50;;;;;;;8.65;57.51;100263.13;5127498;28;20046;-81
2023/03/17 06:17:13;;;;;;;0.35;0.35;;;;;;;8.47;57.54;100264.44;5142822;28;20035;-83
2023/03/17 06:19:43;;;;;;;0.60;0.60;;;;;;;8.61;57.46;100261.47;5146860;28;20045;-81
2023/03/17 06:22:14;;;;;;;0.30;0.30;;;;;;;8.64;57.65;100250.06;5148025;28;20034;-82
2023/03/17 06:24:44;;;;;;;0.50;0.50;;;;;;;8.71;57.22;100256.00;5144168;28;20057;-81
2023/03/17 06:27:15;;;;;;;0.57;0.57;;;;;;;8.70;57.87;100247.31;5133005;28;20041;-83
2023/03/17 06:29:46;;;;;;;2.05;1.25;;;;;;;8.62;57.24;100254.50;5129648;28;20131;-81
2023/03/17 06:32:16;;;;;;;0.50;0.50;;;;;;;8.59;57.33;100247.59;5139295;28;20026;-81
2023/03/17 06:34:47;;;;;;;0.68;0.68;;;;;;;8.70;57.43;100256.88;5168469;28;20062;-81
2023/03/17 06:37:18;;;;;;;0.95;0.95;;;;;;;8.84;57.64;100246.06;5141921;28;20643;-81
2023/03/17 06:39:48;;;;;;;0.73;0.73;;;;;;;8.81;57.55;100252.25;5154037;28;20039;-81
2023/03/17 06:42:19;;;;;;;0.40;0.40;;;;;;;8.82;57.43;100254.81;5154044;28;20031;-81
2023/03/17 06:44:51;;;;;;;1.30;1.20;;;;;;;8.83;57.64;100255.69;5134622;28;20050;-81
2023/03/17 06:47:21;;;;;;;1.02;0.93;;;;;;;8.68;57.60;100258.72;5140796;28;20045;-81
2023/03/17 06:49:52;;;;;;;1.48;0.73;;;;;;;8.78;57.84;100260.16;5146004;28;20043;-82
2023/03/17 06:52:23;;;;;;;0.30;0.30;;;;;;;8.61;57.97;100263.22;5117176;28;20126;-82
2023/03/17 06:54:53;;;;;;;0.30;0.30;;;;;;;8.83;57.93;100260.91;5148128;28;20057;-82
2023/03/17 06:57:24;;;;;;;0.50;0.50;;;;;;;8.84;57.61;100275.72;5130523;28;20033;-81
2023/03/17 06:59:54;;;;;;;1.95;0.95;;;;;;;8.80;57.93;100277.53;5134472;28;20102;-80
2023/03/17 07:02:25;;;;;;;0.30;0.30;;;;;;;8.89;57.56;100271.19;5138867;28;20044;-81
2023/03/17 07:04:56;;;;;;;0.50;0.50;;;;;;;8.77;57.33;100268.91;5170090;28;20050;-81
2023/03/17 07:07:27;;;;;;;1.15;1.15;;;;;;;8.87;57.43;100272.16;5136821;28;20030;-81
2023/03/17 07:09:58;;;;;;;0.38;0.38;;;;;;;8.86;58.20;100275.66;5153226;28;20093;-83
2023/03/17 07:12:28;;;;;;;6.13;1.52;;;;;;;8.94;57.59;100273.69;5133336;28;20026;-81
2023/03/17 07:15:00;;;;;;;0.45;0.45;;;;;;;8.96;57.74;100267.50;5149457;28;20042;-82
2023/03/17 07:17:30;;;;;;;0.45;0.45;;;;;;;9.03;57.99;100262.97;5153251;28;20026;-81
2023/03/17 07:20:01;;;;;;;0.30;0.30;;;;;;;9.01;57.83;100263.94;5150171;28;20570;-81
2023/03/17 07:22:31;;;;;;;0.20;0.20;;;;;;;9.05;57.90;100263.75;5151305;28;20125;-83
2023/03/17 07:25:02;;;;;;;1.05;1.02;;;;;;;9.13;57.80;100263.56;5133568;28;20034;-83
2023/03/17 07:27:33;;;;;;;0.30;0.30;;;;;;;9.15;57.79;100264.38;5133261;28;20072;-81
2023/03/17 07:30:04;;;;;;;0.30;0.30;;;;;;;9.18;57.62;100266.91;5139664;28;20046;-81
2023/03/17 07:32:35;;;;;;;0.35;0.35;;;;;;;9.25;57.44;100264.97;5131483;28;20058;-81
2023/03/17 07:35:06;;;;;;;0.20;0.20;;;;;;;9.16;57.67;100257.38;5146549;28;20592;-80
2023/03/17 07:37:37;;;;;;;0.30;0.30;;;;;;;9.22;57.81;100258.06;5143977;28;20113;-83
2023/03/17 07:40:09;;;;;;;0.32;0.32;;;;;;;9.31;58.02;100262.16;5163717;28;20126;-81
2023/03/17 07:42:40;;;;;;;0.40;0.40;;;;;;;9.38;57.47;100258.47;5133252;28;20326;-81
2023/03/17 07:45:11;;;;;;;1.10;0.93;;;;;;;9.46;58.27;100260.88;5120842;28;20046;-82
2023/03/17 07:47:42;;;;;;;0.32;0.32;;;;;;;9.55;57.81;100255.34;5137032;28;20023;-81
2023/03/17 07:50:13;;;;;;;1.17;1.15;;;;;;;9.60;57.87;100268.31;5136973;28;20045;-83
2023/03/17 07:52:43;;;;;;;0.63;0.63;;;;;;;9.59;58.22;100270.06;5143040;28;20246;-82
2023/03/17 07:55:14;;;;;;;0.40;0.40;;;;;;;9.65;57.80;100263.78;5144274;28;20100;-80
2023/03/17 07:57:45;;;;;;;0.32;0.32;;;;;;;9.75;57.75;100256.50;5125993;28;20037;-80
2023/03/17 08:00:16;;;;;;;0.85;0.77;;;;;;;9.72;57.64;100254.81;5136535;28;20646;-80
2023/03/17 08:02:47;;;;;;;0.60;0.60;;;;;;;9.77;56.97;100249.44;5149840;28;20126;-81
2023/03/17 08:05:19;;;;;;;0.52;0.52;;;;;;;9.83;57.84;100259.75;5157093;28;20042;-81
2023/03/17 08:07:50;;;;;;;2.50;1.05;;;;;;;9.82;57.41;100259.78;5157861;28;20033;-80
2023/03/17 08:10:21;;;;;;;0.30;0.30;;;;;;;9.86;57.34;100267.50;5135384;28;20042;-81
2023/03/17 08:12:52;;;;;;;0.40;0.40;;;;;;;9.90;57.56;100263.00;5137205;28;20469;-81
2023/03/17 08:15:23;;;;;;;0.40;0.40;;;;;;;9.89;57.50;100269.16;5147771;28;20101;-81
2023/03/17 08:17:53;;;;;;;0.80;0.80;;;;;;;9.95;57.72;100274.22;5155775;28;20030;-80
2023/03/17 08:20:24;;;;;;;0.25;0.25;;;;;;;9.99;57.24;100270.59;5130066;28;20612;-81
2023/03/17 08:22:55;;;;;;;0.68;0.47;;;;;;;10.04;57.77;100268.66;5119373;28;20598;-81
2023/03/17 08:25:27;;;;;;;0.73;0.73;;;;;;;10.08;57.23;100265.06;5148860;28;20145;-81
2023/03/17 08:27:58;;;;;;;0.60;0.60;;;;;;;10.14;57.65;100273.63;5147043;28;20034;-81
2023/03/17 08:30:29;;;;;;;0.20;0.20;;;;;;;10.12;56.76;100275.44;5148216;28;20088;-81
2023/03/17 08:32:59;;;;;;;0.98;0.98;;;;;;;10.11;57.73;100269.34;5141005;28;20035;-81
2023/03/17 08:35:30;;;;;;;2.08;1.58;;;;;;;10.22;57.12;100266.34;5133850;28;20039;-81
2023/03/17 08:38:01;;;;;;;0.80;0.80;;;;;;;10.24;56.74;100265.44;5137629;28;20038;-81
2023/03/17 08:40:31;;;;;;;0.40;0.40;;;;;;;10.22;57.19;100271.59;5132123;28;20038;-81
2023/03/17 08:43:02;;;;;;;0.65;0.65;;;;;;;10.27;57.30;100264.47;5128839;28;20027;-81
2023/03/17 08:45:32;;;;;;;0.85;0.82;;;;;;;10.35;57.75;100256.31;5155375;28;20058;-84
2023/03/17 08:48:03;;;;;;;0.50;0.50;;;;;;;10.36;57.02;100258.91;5137825;28;20076;-86
2023/03/17 08:50:34;;;;;;;0.22;0.22;;;;;;;10.51;57.71;100261.94;5145476;28;20102;-82
2023/03/17 08:53:04;;;;;;;0.22;0.22;;;;;;;10.48;57.54;100252.44;5137407;28;20133;-84
2023/03/17 08:55:36;;;;;;;0.65;0.65;;;;;;;10.48;56.44;100255.03;5142996;28;20066;-82
2023/03/17 08:58:08;;;;;;;0.40;0.40;;;;;;;10.51;56.98;100251.47;5164357;28;20291;-82
2023/03/17 09:00:39;;;;;;;0.30;0.30;;;;;;;10.53;57.34;100253.13;5138480;28;20317;-82
2023/03/17 09:03:10;;;;;;;0.50;0.50;;;;;;;10.48;56.28;100252.44;5162381;28;20035;-82
2023/03/17 09:05:42;;;;;;;0.93;0.93;;;;;;;10.63;57.30;100261.50;5136100;28;20041;-83
2023/03/17 09:08:13;;;;;;;0.52;0.52;;;;;;;10.61;56.82;100263.34;5134212;28;20027;-82
2023/03/17 09:10:43;;;;;;;0.25;0.25;;;;;;;10.65;57.51;100264.94;5137786;28;20046;-82
2023/03/17 09:13:15;;;;;;;6.22;1.15;;;;;;;10.70;57.04;100256.91;5118205;28;20493;-82
2023/03/17 09:15:45;;;;;;;0.47;0.47;;;;;;;10.81;57.09;100249.53;5130933;28;20096;-82
2023/03/17 09:18:16;;;;;;;0.93;0.93;;;;;;;10.78;56.24;100259.28;5127415;28;20125;-84
2023/03/17 09:20:47;;;;;;;0.57;0.57;;;;;;;10.84;57.34;100253.81;5142510;28;20031;-83
2023/03/17 09:23:17;;;;;;;0.63;0.57;;;;;;;10.93;57.61;100250.00;5143165;28;20030;-83
2023/03/17 09:25:48;;;;;;;0.28;0.28;;;;;;;10.91;56.40;100249.22;5131157;28;20042;-85
2023/03/17 09:28:18;;;;;;;0.25;0.25;;;;;;;10.94;56.39;100238.56;5134504;28;20053;-83
2023/03/17 09:30:49;;;;;;;1.85;0.85;;;;;;;11.01;56.19;100247.94;5131338;28;20042;-85
2023/03/17 09:33:20;;;;;;;0.38;0.38;;;;;;;11.02;56.45;100247.03;5128052;28;20030;-85
2023/03/17 09:35:51;;;;;;;2.25;2.05;;;;;;;11.07;57.19;100249.50;5141578;28;20893;-84
2023/03/17 09:38:27;;;;;;;2.38;0.70;;;;;;;11.02;56.14;100252.28;5128085;28;20237;-85
2023/03/17 09:41:01;;;;;;;1.13;1.02;;;;;;;11.10;55.84;100258.09;5125482;28;20084;-85
2023/03/17 09:43:57;;;;;;;0.20;0.20;;;;;;;11.15;56.75;100242.19;5129923;28;20490;-86
2023/03/17 09:46:50;;;;;;;0.30;0.30;;;;;;;11.23;56.61;100237.50;5109251;28;20061;-83
2023/03/17 09:49:27;;;;;;;5.75;1.13;;;;;;;11.28;56.60;100237.34;5132293;28;20061;-83
2023/03/17 09:51:58;;;;;;;0.43;0.43;;;;;;;11.35;56.56;100257.19;5114776;28;20525;-82
2023/03/17 09:54:37;;;;;;;1.20;0.75;;;;;;;11.36;56.95;100258.06;5129216;28;20038;-82
2023/03/17 09:57:29;;;;;;;0.40;0.40;;;;;;;11.47;57.19;100261.13;5149021;28;20023;-82
2023/03/17 10:00:29;;;;;;;0.30;0.30;;;;;;;11.51;55.95;100257.47;5136994;28;20098;-82
2023/03/17 10:03:11;;;;;;;0.60;0.60;;;;;;;11.57;56.90;100259.88;5154731;28;20074;-82
2023/03/17 10:05:50;;;;;;;0.20;0.20;;;;;;;11.64;56.70;100263.13;5131529;28;20101;-82
2023/03/17 10:08:32;;;;;;;0.55;0.55;;;;;;;11.73;56.41;100247.00;5134655;28;20046;-82
2023/03/17 10:11:14;;;;;;;0.40;0.40;;;;;;;11.75;55.70;100249.56;5115566;28;20057;-84
2023/03/17 10:14:08;;;;;;;0.60;0.60;;;;;;;11.81;56.12;100255.44;5136810;28;20051;-81
2023/03/17 10:17:01;;;;;;;0.30;0.30;;;;;;;11.89;56.78;100249.84;5126446;28;20042;-82
2023/03/17 10:19:38;;;;;;;0.20;0.20;;;;;;;12.01;56.07;100252.94;5162651;28;20037;-81
2023/03/17 10:22:26;;;;;;;0.38;0.38;;;;;;;12.01;55.61;100252.94;5149181;28;20061;-81
2023/03/17 10:25:02;;;;;;;7.03;1.00;;;;;;;12.09;55.79;100246.44;5125441;28;20051;-80
2023/03/17 10:27:36;;;;;;;0.52;0.52;;;;;;;12.15;56.30;100250.59;5153029;28;20812;-80
2023/03/17 10:30:16;;;;;;;0.95;0.90;;;;;;;12.33;55.76;100248.13;5136664;28;20412;-81
2023/03/17 10:32:47;;;;;;;0.43;0.43;;;;;;;12.32;55.82;100235.91;5146893;28;20046;-81
2023/03/17 10:35:18;;;;;;;0.30;0.30;;;;;;;12.45;56.07;100244.97;5152966;28;20074;-81
2023/03/17 10:37:49;;;;;;;1.38;0.77;;;;;;;12.56;55.39;100229.59;5135830;28;20030;-81
2023/03/17 10:40:25;;;;;;;0.30;0.30;;;;;;;12.68;54.09;100224.72;5134740;28;20039;-80
2023/03/17 10:43:06;;;;;;;0.32;0.32;;;;;;;12.69;54.80;100224.63;5151763;28;20053;-80
2023/03/17 10:45:40;;;;;;;0.40;0.40;;;;;;;12.75;55.59;100223.53;5155947;28;20124;-80
2023/03/17 10:48:17;;;;;;;2.40;0.50;;;;;;;12.85;56.03;100218.69;5144737;28;20490;-80
2023/03/17 10:50:48;;;;;;;0.85;0.85;;;;;;;12.94;55.94;100222.69;5145109;28;20405;-80
2023/03/17 10:53:30;;;;;;;0.40;0.40;;;;;;;13.11;55.09;100224.56;5151917;28;20023;-80
2023/03/17 10:56:18;;;;;;;0.65;0.60;;;;;;;13.19;54.92;100222.44;5137695;28;20316;-80
2023/03/17 10:58:50;;;;;;;0.30;0.30;;;;;;;13.23;54.73;100214.31;5128353;28;20018;-80
2023/03/17 11:01:21;;;;;;;7.18;1.42;;;;;;;13.25;54.58;100216.03;5150896;28;20231;-81
2023/03/17 11:03:52;;;;;;;0.35;0.35;;;;;;;13.37;54.63;100207.53;5139341;28;20038;-81
2023/03/17 11:06:40;;;;;;;0.30;0.30;;;;;;;13.42;54.37;100213.50;5152940;28;20046;-82
2023/03/17 11:09:17;;;;;;;0.45;0.45;;;;;;;13.51;54.52;100207.78;5136200;28;20034;-81
2023/03/17 11:11:49;;;;;;;0.85;0.85;;;;;;;13.56;54.70;100209.34;5153099;28;20042;-82
2023/03/17 11:14:27;;;;;;;0.40;0.40;;;;;;;13.58;55.03;100213.63;5138106;28;20042;-81
2023/03/17 11:17:05;;;;;;;0.45;0.45;;;;;;;13.75;54.07;100220.72;5156104;28;20039;-82
2023/03/17 11:19:58;;;;;;;0.30;0.30;;;;;;;13.87;53.93;100213.13;5145648;28;20088;-82
2023/03/17 11:22:39;;;;;;;0.20;0.20;;;;;;;13.88;54.37;100209.56;5166191;28;20011;-82
2023/03/17 11:25:18;;;;;;;0.65;0.65;;;;;;;14.05;53.44;100201.69;5152003;28;20038;-81
2023/03/17 11:28:08;;;;;;;0.85;0.85;;;;;;;14.14;53.38;100190.66;5149530;28;20030;-83
2023/03/17 11:31:06;;;;;;;0.50;0.50;;;;;;;14.13;53.62;100177.56;5164369;28;20073;-82
2023/03/17 11:33:46;;;;;;;0.30;0.30;;;;;;;14.25;54.92;100178.72;5141500;28;20039;-82
2023/03/17 11:36:57;;;;;;;0.75;0.75;;;;;;;14.27;55.21;100182.13;5134797;28;20031;-82
2023/03/17 11:39:46;;;;;;;0.30;0.30;;;;;;;14.50;52.55;100180.09;5167816;28;20093;-82
2023/03/17 11:42:26;;;;;;;2.00;1.08;;;;;;;14.54;52.89;100171.06;5159610;28;20026;-81
2023/03/17 11:45:03;;;;;;;3.10;0.60;;;;;;;14.65;52.84;100166.09;5142481;28;20410;-82
2023/03/17 11:47:52;;;;;;;0.30;0.30;;;;;;;14.68;53.22;100165.94;5153496;28;20038;-81
2023/03/17 11:50:38;;;;;;;1.00;0.65;;;;;;;14.68;51.13;100167.75;5157871;28;20042;-83
2023/03/17 11:53:49;;;;;;;0.65;0.65;;;;;;;14.67;52.17;100161.59;5141936;28;20123;-82
2023/03/17 11:56:29;;;;;;;1.08;0.65;;;;;;;14.75;51.83;100162.03;5151030;28;20050;-83
2023/03/17 11:59:05;;;;;;;0.75;0.75;;;;;;;14.81;53.04;100160.00;5145261;28;20033;-81